Jerome, Missouri
Current Conditions -  °F | °C
As of 9:43 PM on Sunday 23 Nov 2014 (Local Time) from KTBN Reporting Station
Moderate Rain Moderate Rain  
Wind Chill: 54°   Ceiling: 4000
Heat Index: 54°   Visibility: 6mi
Dew Point: 54°   Wind: 5mph
Humidity: 100%   Direction: 190°S
Pressure: 29.26"   Gusts: NA
Location:  37.93°N, 91.98°W
Report Text: KTBN 240343Z AUTO 19004KT 6SM RA BR FEW004 OVC040 12/12 A2926 RMK AO2 VIS 2 1/2 RWY32 CIG 002 RWY32
Loading
Personal Weather Stations






























Interactive Weather Map New forecast layout! Learn more

10-Day Weather Forecast

Advertisements
Track Severe Weather on mobile